Navigare Pars — OXNC2 — position and weather

sailwx.info

Track history (hours):
 
Tides and Currents Weather Stations Pressure Air Temp Water Temp Dewpoint Dewpoint Depression Visibility Wind Speed Wind Dir Waves Ship Positions

Navigare Pars

Last reported at 2018-Feb-21 00:37 UTC. Time now 2018-Feb-21 01:43 UTC.
Position N 51°17' E 004°20'.

Length 183 m; draft 7.8 m.

Type: Ship. MMSI: 219006000.

Date/timePositionNaut miles runAvg speedWind from/ knotsBaromVisibWave heightAir tempDewpointWater temp
2018-Feb-21 00:37N 51°17' E 004°20'0 0.0
2018-Feb-21 00:30N 51°17' E 004°20'1 1.3
2018-Feb-21 00:00N 51°18' E 004°20'3 6.5
2018-Feb-20 23:30N 51°21' E 004°17'0 0.2
2018-Feb-20 23:00N 51°21' E 004°17'0 0.0
2018-Feb-20 22:31N 51°21' E 004°17'0 1.0
2018-Feb-20 22:01N 51°21' E 004°16'2 4.8
2018-Feb-20 21:30N 51°22' E 004°13'3 6.1
2018-Feb-20 21:00N 51°22' E 004°08'4 8.1
2018-Feb-20 20:31N 51°24' E 004°02'3 5.9
2018-Feb-20 20:00N 51°25' E 003°58'4 7.9
2018-Feb-20 19:31N 51°22' E 003°55'4 8.2
2018-Feb-20 19:01N 51°21' E 003°49'510.6
2018-Feb-20 18:30N 51°24' E 003°43'5 9.9
2018-Feb-20 18:01N 51°26' E 003°35'4 5.9
2018-Feb-20 17:21N 51°25' E 003°29'2 6.8
2018-Feb-20 17:01N 51°25' E 003°25'5 9.6
2018-Feb-20 16:30N 51°24' E 003°17'613.0
2018-Feb-20 16:01N 51°24' E 003°07'713.7
2018-Feb-20 15:30N 51°23' E 002°56'813.5
2018-Feb-20 14:54N 51°23' E 002°43'2 5.2
2018-Feb-20 14:30N 51°24' E 002°40'2 4.2
2018-Feb-20 14:00N 51°24' E 002°37'0 0.4
2018-Feb-20 13:29N 51°24' E 002°37'0 0.2
2018-Feb-20 12:59N 51°24' E 002°37'0 0.1
2018-Feb-20 12:29N 51°24' E 002°37'0 0.0
2018-Feb-20 11:50N 51°24' E 002°37'0 0.0
2018-Feb-20 11:29N 51°24' E 002°37'0 0.0
2018-Feb-20 10:56N 51°24' E 002°37'0 0.0
2018-Feb-20 10:26N 51°24' E 002°37'0 0.0
2018-Feb-20 09:59N 51°24' E 002°37'0 0.0
2018-Feb-20 09:29N 51°24' E 002°37'0 0.1
2018-Feb-20 08:59N 51°24' E 002°37'0 0.1
2018-Feb-20 08:26N 51°24' E 002°37'0 0.0
2018-Feb-20 07:59N 51°24' E 002°37'0 0.1
2018-Feb-20 07:29N 51°24' E 002°37'0 0.0
2018-Feb-20 06:59N 51°24' E 002°37'0 0.1
2018-Feb-20 06:29N 51°24' E 002°37'0 0.1
2018-Feb-20 05:59N 51°24' E 002°37'0 0.1
2018-Feb-20 05:29N 51°24' E 002°37'0 0.0
2018-Feb-20 04:59N 51°24' E 002°37'0 0.0
2018-Feb-20 04:29N 51°24' E 002°37'0 0.0
2018-Feb-20 03:59N 51°24' E 002°37'0 0.0
2018-Feb-20 03:29N 51°24' E 002°37'0 0.0
2018-Feb-20 02:56N 51°24' E 002°37'0 0.0
2018-Feb-20 02:29N 51°24' E 002°37'0 0.2
2018-Feb-20 01:59N 51°24' E 002°37'0 0.3
2018-Feb-20 01:29N 51°24' E 002°37'0 0.0
2018-Feb-20 00:59N 51°24' E 002°37'0 0.0
2018-Feb-20 00:29N 51°24' E 002°37'0 0.0
2018-Feb-19 23:59N 51°24' E 002°37'0 0.0
2018-Feb-19 23:26N 51°24' E 002°37'0 0.0
2018-Feb-19 22:59N 51°24' E 002°37'0 0.0
2018-Feb-19 22:29N 51°24' E 002°37'0 0.0
2018-Feb-19 21:59N 51°24' E 002°37'0 0.1
2018-Feb-19 21:23N 51°24' E 002°37'0 0.1
2018-Feb-19 20:59N 51°24' E 002°37'0 0.1
2018-Feb-19 20:29N 51°24' E 002°37'0 0.1
2018-Feb-19 19:59N 51°24' E 002°37'0 0.0
2018-Feb-19 19:29N 51°24' E 002°37'0 0.0
2018-Feb-19 18:56N 51°24' E 002°37'0 0.0
2018-Feb-19 18:29N 51°24' E 002°37'0 0.0
2018-Feb-19 17:56N 51°24' E 002°37'0 0.0
2018-Feb-19 17:26N 51°24' E 002°37'0 0.0
2018-Feb-19 16:59N 51°24' E 002°37'0 0.0
2018-Feb-19 16:29N 51°24' E 002°37'0 0.0
2018-Feb-19 15:59N 51°24' E 002°37'0 0.0
2018-Feb-19 15:29N 51°24' E 002°37'0 0.0
2018-Feb-19 14:56N 51°24' E 002°37'0 0.0
2018-Feb-19 14:29N 51°24' E 002°37'0 0.0
2018-Feb-19 13:59N 51°24' E 002°37'0 0.0
2018-Feb-19 13:29N 51°24' E 002°37'0 0.0
2018-Feb-19 12:59N 51°24' E 002°37'0 0.3
2018-Feb-19 12:29N 51°24' E 002°37'0 0.1
2018-Feb-19 11:59N 51°24' E 002°37'0 0.0
2018-Feb-19 11:26N 51°24' E 002°37'0 0.0
2018-Feb-19 10:59N 51°24' E 002°37'0 0.0
2018-Feb-19 10:29N 51°24' E 002°37'0 0.0
2018-Feb-19 09:59N 51°24' E 002°37'0 0.1
2018-Feb-19 09:29N 51°24' E 002°37'0 0.1
2018-Feb-19 08:59N 51°24' E 002°37'0 0.1
2018-Feb-19 08:23N 51°24' E 002°37'0 0.1
2018-Feb-19 07:59N 51°24' E 002°37'0 0.0
2018-Feb-19 07:29N 51°24' E 002°37'0 0.0
2018-Feb-19 06:59N 51°24' E 002°37'0 0.0
2018-Feb-19 06:29N 51°24' E 002°37'0 0.0
2018-Feb-19 05:56N 51°24' E 002°37'0 0.0
2018-Feb-19 05:29N 51°24' E 002°37'0 0.0
2018-Feb-19 04:59N 51°24' E 002°37'0 0.0
2018-Feb-19 04:29N 51°24' E 002°37'0 0.0
2018-Feb-19 03:59N 51°24' E 002°37'0 0.0
2018-Feb-19 03:29N 51°24' E 002°37'0 0.0
2018-Feb-19 02:59N 51°24' E 002°37'0 0.0
2018-Feb-19 02:29N 51°24' E 002°37'0 0.0
2018-Feb-19 01:59N 51°24' E 002°37'0 0.0
2018-Feb-19 01:29N 51°24' E 002°37'0 0.0
2018-Feb-19 00:59N 51°24' E 002°37'0 0.2
2018-Feb-19 00:23N 51°24' E 002°37'0 0.2
2018-Feb-18 23:59N 51°24' E 002°37'0 0.0
2018-Feb-18 23:29N 51°24' E 002°37'0 0.0
2018-Feb-18 22:59N 51°24' E 002°37'0 0.0
2018-Feb-18 22:29N 51°24' E 002°37'0 0.0
2018-Feb-18 21:59N 51°24' E 002°37'0 0.0
2018-Feb-18 21:29N 51°24' E 002°37'0 0.1
2018-Feb-18 20:59N 51°24' E 002°37'0 0.1
2018-Feb-18 20:29N 51°24' E 002°37'0 0.1
2018-Feb-18 19:50N 51°24' E 002°37'0 0.1
2018-Feb-18 19:29N 51°24' E 002°37'0 0.0
2018-Feb-18 18:59N 51°24' E 002°37'0 0.0
2018-Feb-18 18:29N 51°24' E 002°37'0 0.0
2018-Feb-18 17:56N 51°24' E 002°37'0 0.0
2018-Feb-18 17:29N 51°24' E 002°37'0 0.1
2018-Feb-18 16:56N 51°24' E 002°37'0 0.1
2018-Feb-18 16:29N 51°24' E 002°37'0 0.0
2018-Feb-18 15:59N 51°24' E 002°37'0 0.0
2018-Feb-18 15:29N 51°24' E 002°37'0 0.0
2018-Feb-18 14:59N 51°24' E 002°37'0 0.0
2018-Feb-18 14:23N 51°24' E 002°37'0 0.0
2018-Feb-18 13:59N 51°24' E 002°37'0 0.0
2018-Feb-18 13:29N 51°24' E 002°37'0 0.0
2018-Feb-18 12:59N 51°24' E 002°37'0 0.3
2018-Feb-18 12:29N 51°24' E 002°37'0 0.2
2018-Feb-18 11:59N 51°24' E 002°37'0 0.1
2018-Feb-18 11:29N 51°24' E 002°37'0 0.0
2018-Feb-18 10:53N 51°24' E 002°37'0 0.0
2018-Feb-18 10:29N 51°24' E 002°37'0 0.0
2018-Feb-18 09:59N 51°24' E 002°37'0 0.0
2018-Feb-18 09:26N 51°24' E 002°37'0 0.0
2018-Feb-18 08:59N 51°24' E 002°37'0 0.0
2018-Feb-18 08:26N 51°24' E 002°37'0 0.1
2018-Feb-18 07:59N 51°24' E 002°37'0 0.1
2018-Feb-18 07:29N 51°24' E 002°37'0 0.1
2018-Feb-18 06:59N 51°24' E 002°37'0 0.1
2018-Feb-18 06:29N 51°24' E 002°37'0 0.1
2018-Feb-18 05:59N 51°24' E 002°37'0 0.0
2018-Feb-18 05:29N 51°24' E 002°37'0 0.0
2018-Feb-18 04:59N 51°24' E 002°37'0 0.0
2018-Feb-18 04:29N 51°24' E 002°37'0 0.0
2018-Feb-18 03:56N 51°24' E 002°37'0 0.0
2018-Feb-18 03:29N 51°24' E 002°37'0 0.0
2018-Feb-18 02:59N 51°24' E 002°37'0 0.0
2018-Feb-18 02:29N 51°24' E 002°37'0 0.0
2018-Feb-18 01:59N 51°24' E 002°37'0 0.0
2018-Feb-18 01:29N 51°24' E 002°37'0 0.0
2018-Feb-18 00:59N 51°24' E 002°37'0 0.1
2018-Feb-18 00:29N 51°24' E 002°37'0 0.3
2018-Feb-17 23:59N 51°24' E 002°37'0 0.0
2018-Feb-17 23:26N 51°24' E 002°37'0 0.0
2018-Feb-17 22:59N 51°24' E 002°37'0 0.0
2018-Feb-17 22:29N 51°24' E 002°37'0 0.0
2018-Feb-17 21:59N 51°24' E 002°37'0 0.0
2018-Feb-17 21:29N 51°24' E 002°37'0 0.0
2018-Feb-17 20:59N 51°24' E 002°37'0 0.0
2018-Feb-17 20:29N 51°24' E 002°37'0 0.0
2018-Feb-17 19:50N 51°24' E 002°37'0 0.1
2018-Feb-17 19:23N 51°24' E 002°37'0 0.0
2018-Feb-17 18:56N 51°24' E 002°37'0 0.0
2018-Feb-17 18:26N 51°24' E 002°37'0 0.1
2018-Feb-17 17:59N 51°24' E 002°37'0 0.1
2018-Feb-17 17:29N 51°24' E 002°37'0 0.1
2018-Feb-17 16:59N 51°24' E 002°37'0 0.0
2018-Feb-17 16:29N 51°24' E 002°37'0 0.0
2018-Feb-17 15:59N 51°24' E 002°37'0 0.0
2018-Feb-17 15:29N 51°24' E 002°37'0 0.0
2018-Feb-17 14:59N 51°24' E 002°37'0 0.0
2018-Feb-17 14:29N 51°24' E 002°37'0 0.0
2018-Feb-17 13:59N 51°24' E 002°37'0 0.0
2018-Feb-17 13:26N 51°24' E 002°37'0 0.0
2018-Feb-17 12:59N 51°24' E 002°37'0 0.0
2018-Feb-17 12:29N 51°24' E 002°37'0 0.3
2018-Feb-17 11:59N 51°24' E 002°37'0 0.1
2018-Feb-17 11:23N 51°24' E 002°37'0 0.0
2018-Feb-17 10:56N 51°24' E 002°37'0 0.0
2018-Feb-17 10:26N 51°24' E 002°37'0 0.0
2018-Feb-17 09:59N 51°24' E 002°37'0 0.0
2018-Feb-17 09:29N 51°24' E 002°37'0 0.0
2018-Feb-17 08:59N 51°24' E 002°37'0 0.0
2018-Feb-17 08:29N 51°24' E 002°37'0 0.0
2018-Feb-17 07:56N 51°24' E 002°37'0 0.1
2018-Feb-17 07:29N 51°24' E 002°37'0 0.0
2018-Feb-17 06:59N 51°24' E 002°37'0 0.0
2018-Feb-17 06:29N 51°24' E 002°37'0 0.0
2018-Feb-17 05:59N 51°24' E 002°37'0 0.0
2018-Feb-17 05:29N 51°24' E 002°37'0 0.1
2018-Feb-17 04:50N 51°24' E 002°37'0 0.1
2018-Feb-17 04:26N 51°24' E 002°37'0 0.1
2018-Feb-17 03:59N 51°24' E 002°37'0 0.1
2018-Feb-17 03:29N 51°24' E 002°37'0 0.0
2018-Feb-17 02:59N 51°24' E 002°37'0 0.0
2018-Feb-17 02:26N 51°24' E 002°37'0 0.0
2018-Feb-17 01:56N 51°24' E 002°37'0 0.0
2018-Feb-17 01:29N 51°24' E 002°37'0 0.0
2018-Feb-17 00:59N 51°24' E 002°37'0 0.0
2018-Feb-17 00:29N 51°24' E 002°37'0 0.2
2018-Feb-16 23:56N 51°24' E 002°37'0 0.3
2018-Feb-16 23:26N 51°24' E 002°37'0 0.1
2018-Feb-16 22:50N 51°24' E 002°37'0 0.0
2018-Feb-16 22:17N 51°24' E 002°37'0 0.0
2018-Feb-16 21:59N 51°24' E 002°37'0 0.0
2018-Feb-16 21:29N 51°24' E 002°37'0 0.0
2018-Feb-16 20:56N 51°24' E 002°37'0 0.0
2018-Feb-16 20:29N 51°24' E 002°37'0 0.0
2018-Feb-16 19:56N 51°24' E 002°37'0 0.0
2018-Feb-16 19:23N 51°24' E 002°37'0 0.0
2018-Feb-16 18:53N 51°24' E 002°37'0 0.0
2018-Feb-16 18:23N 51°24' E 002°37'0 0.0
2018-Feb-16 17:56N 51°24' E 002°37'0 0.2
2018-Feb-16 17:23N 51°24' E 002°37'0 0.1
2018-Feb-16 16:59N 51°24' E 002°37'0 0.1
2018-Feb-16 16:29N 51°24' E 002°37'0 0.0
2018-Feb-16 15:59N 51°24' E 002°37'0 0.0
2018-Feb-16 15:29N 51°24' E 002°37'0 0.0
2018-Feb-16 14:59N 51°24' E 002°37'0 0.0
2018-Feb-16 14:29N 51°24' E 002°37'0 0.0
2018-Feb-16 13:59N 51°24' E 002°37'0 0.0
2018-Feb-16 13:29N 51°24' E 002°37'0 0.0
2018-Feb-16 12:59N 51°24' E 002°37'0 0.0
2018-Feb-16 12:29N 51°24' E 002°37'0 0.1
2018-Feb-16 11:59N 51°24' E 002°37'0 0.1
2018-Feb-16 11:29N 51°24' E 002°37'0 0.3
2018-Feb-16 10:59N 51°24' E 002°37'0 0.1
2018-Feb-16 10:29N 51°24' E 002°37'0 0.0
2018-Feb-16 09:59N 51°24' E 002°37'0 0.0
2018-Feb-16 09:26N 51°24' E 002°37'0 0.0
2018-Feb-16 08:53N 51°24' E 002°37'0 0.0
2018-Feb-16 08:23N 51°24' E 002°37'0 0.1
2018-Feb-16 07:56N 51°24' E 002°37'0 0.1
2018-Feb-16 07:29N 51°24' E 002°37'0 0.1
2018-Feb-16 06:59N 51°24' E 002°37'0 0.1
2018-Feb-16 06:29N 51°24' E 002°37'0 0.1
2018-Feb-16 05:59N 51°24' E 002°37'0 0.1
2018-Feb-16 05:29N 51°24' E 002°37'0 0.0
2018-Feb-16 04:53N 51°24' E 002°37'0 0.0
2018-Feb-16 04:17N 51°24' E 002°37'0 0.0
2018-Feb-16 03:56N 51°24' E 002°37'0 0.0
2018-Feb-16 03:29N 51°24' E 002°37'0 0.0
2018-Feb-16 02:59N 51°24' E 002°37'0 0.0
2018-Feb-16 02:23N 51°24' E 002°37'0 0.0
2018-Feb-16 01:59N 51°24' E 002°37'0 0.0
2018-Feb-16 01:29N 51°24' E 002°37'0 0.0
2018-Feb-16 00:59N 51°24' E 002°37'0 0.0
2018-Feb-16 00:29N 51°24' E 002°37'0 0.0
2018-Feb-15 23:59N 51°24' E 002°37'0 0.1
2018-Feb-15 23:29N 51°24' E 002°37'0 0.1
2018-Feb-15 22:59N 51°24' E 002°37'0 0.1
2018-Feb-15 22:29N 51°24' E 002°37'0 0.2
2018-Feb-15 21:55N 51°24' E 002°37'1 1.9
2018-Feb-15 21:30N 51°24' E 002°36'4 7.0
2018-Feb-15 20:56N 51°23' E 002°30'510.9
2018-Feb-15 20:30N 51°20' E 002°23'511.0
2018-Feb-15 20:00N 51°18' E 002°15'611.7
2018-Feb-15 19:30N 51°19' E 002°06'612.7
2018-Feb-15 19:01N 51°23' E 001°58'713.4
2018-Feb-15 18:30N 51°29' E 002°03'713.4
2018-Feb-15 18:00N 51°34' E 002°11'712.9
2018-Feb-15 17:29N 51°39' E 002°18'612.4
2018-Feb-15 17:00N 51°43' E 002°24'612.0
2018-Feb-15 16:29N 51°49' E 002°30'  
2018-Feb-12 13:30N 52°26' E 004°06'1 2.2
2018-Feb-12 13:01N 52°27' E 004°07'0 0.0
2018-Feb-12 12:31N 52°27' E 004°07'0 0.1
2018-Feb-12 12:00N 52°27' E 004°07'0 0.0
2018-Feb-12 11:30N 52°27' E 004°07'0 0.1
2018-Feb-12 11:00N 52°27' E 004°07'0 0.1
2018-Feb-12 10:29N 52°27' E 004°07'0 0.0
2018-Feb-12 09:58N 52°27' E 004°07'0 0.1
2018-Feb-12 09:30N 52°27' E 004°07'0 0.0
2018-Feb-12 09:00N 52°27' E 004°07'0 0.0
2018-Feb-12 08:30N 52°27' E 004°07'0 0.0
2018-Feb-12 07:57N 52°27' E 004°07'0 0.0
2018-Feb-12 07:30N 52°27' E 004°07'0 0.0
2018-Feb-12 07:00N 52°27' E 004°07'0 0.0
2018-Feb-12 06:27N 52°27' E 004°07'0 0.0
2018-Feb-12 06:00N 52°27' E 004°07'0 0.0
2018-Feb-12 05:30N 52°27' E 004°07'0 0.0
2018-Feb-12 05:00N 52°27' E 004°07'0 0.1
2018-Feb-12 04:30N 52°27' E 004°07'0 0.0
2018-Feb-12 04:00N 52°27' E 004°07'0 0.1
2018-Feb-12 03:29N 52°27' E 004°07'0 0.0
2018-Feb-12 03:00N 52°27' E 004°07'0 0.0
2018-Feb-12 02:30N 52°27' E 004°07'0 0.0
2018-Feb-12 02:00N 52°27' E 004°07'0 0.0
2018-Feb-12 01:30N 52°27' E 004°07'0 0.0
2018-Feb-12 01:01N 52°27' E 004°07'0 0.0
2018-Feb-12 00:30N 52°27' E 004°07'0 0.0
2018-Feb-12 00:00N 52°27' E 004°07'0 0.0
2018-Feb-11 23:29N 52°27' E 004°07'0 0.1
2018-Feb-11 23:01N 52°27' E 004°07'0 0.1
2018-Feb-11 22:29N 52°27' E 004°07'0 0.1
2018-Feb-11 22:00N 52°27' E 004°07'0 0.0
2018-Feb-11 21:29N 52°27' E 004°07'0 0.0
2018-Feb-11 20:59N 52°27' E 004°07'0 0.0
2018-Feb-11 20:30N 52°27' E 004°07'0 0.0
2018-Feb-11 20:00N 52°27' E 004°07'0 0.0
2018-Feb-11 19:30N 52°27' E 004°07'0 0.1
2018-Feb-11 18:57N 52°27' E 004°07'0 0.0
2018-Feb-11 18:30N 52°27' E 004°07'0 0.1
2018-Feb-11 17:57N 52°27' E 004°07'0 0.1
2018-Feb-11 17:27N 52°27' E 004°07'0 0.0
2018-Feb-11 17:00N 52°27' E 004°07'0 0.0
2018-Feb-11 16:30N 52°27' E 004°07'0 0.0
2018-Feb-11 15:57N 52°27' E 004°07'0 0.0
2018-Feb-11 15:29N 52°27' E 004°07'0 0.0
2018-Feb-11 14:58N 52°27' E 004°07'0 0.1
2018-Feb-11 14:30N 52°27' E 004°07'0 0.0
2018-Feb-11 14:00N 52°27' E 004°07'1 2.6
2018-Feb-11 13:31N 52°28' E 004°05'510.5
2018-Feb-11 13:00N 52°27' E 003°57'611.9
2018-Feb-11 12:30N 52°26' E 003°47'612.1
2018-Feb-11 12:00N 52°24' E 003°38'4 0.5
2018-Feb-11 02:04N 52°23' E 003°31'1 7.2
2018-Feb-11 01:54N 52°24' E 003°32'3 6.3
2018-Feb-11 01:22N 52°27' E 003°35'  
Track history (hours):
 
Tides and Currents Weather Stations Pressure Air Temp Water Temp Dewpoint Dewpoint Depression Visibility Wind Speed Wind Dir Waves Ship Positions

Navigare Pars

Last reported at 2018-Feb-21 00:37 UTC. Time now 2018-Feb-21 01:43 UTC.
Position N 51°17' E 004°20'.

Length 183 m; draft 7.8 m.

Type: Ship. MMSI: 219006000.

Date/timePositionNaut miles runAvg speedWind from/ knotsBaromVisibWave heightAir tempDewpointWater temp
2018-Feb-21 00:37N 51°17' E 004°20'0 0.0
2018-Feb-21 00:30N 51°17' E 004°20'1 1.3
2018-Feb-21 00:00N 51°18' E 004°20'3 6.5
2018-Feb-20 23:30N 51°21' E 004°17'0 0.2
2018-Feb-20 23:00N 51°21' E 004°17'0 0.0
2018-Feb-20 22:31N 51°21' E 004°17'0 1.0
2018-Feb-20 22:01N 51°21' E 004°16'2 4.8
2018-Feb-20 21:30N 51°22' E 004°13'3 6.1
2018-Feb-20 21:00N 51°22' E 004°08'4 8.1
2018-Feb-20 20:31N 51°24' E 004°02'3 5.9
2018-Feb-20 20:00N 51°25' E 003°58'4 7.9
2018-Feb-20 19:31N 51°22' E 003°55'4 8.2
2018-Feb-20 19:01N 51°21' E 003°49'510.6
2018-Feb-20 18:30N 51°24' E 003°43'5 9.9
2018-Feb-20 18:01N 51°26' E 003°35'4 5.9
2018-Feb-20 17:21N 51°25' E 003°29'2 6.8
2018-Feb-20 17:01N 51°25' E 003°25'5 9.6
2018-Feb-20 16:30N 51°24' E 003°17'613.0
2018-Feb-20 16:01N 51°24' E 003°07'713.7
2018-Feb-20 15:30N 51°23' E 002°56'813.5
2018-Feb-20 14:54N 51°23' E 002°43'2 5.2
2018-Feb-20 14:30N 51°24' E 002°40'2 4.2
2018-Feb-20 14:00N 51°24' E 002°37'0 0.4
2018-Feb-20 13:29N 51°24' E 002°37'0 0.2
2018-Feb-20 12:59N 51°24' E 002°37'0 0.1
2018-Feb-20 12:29N 51°24' E 002°37'0 0.0
2018-Feb-20 11:50N 51°24' E 002°37'0 0.0
2018-Feb-20 11:29N 51°24' E 002°37'0 0.0
2018-Feb-20 10:56N 51°24' E 002°37'0 0.0
2018-Feb-20 10:26N 51°24' E 002°37'0 0.0
2018-Feb-20 09:59N 51°24' E 002°37'0 0.0
2018-Feb-20 09:29N 51°24' E 002°37'0 0.1
2018-Feb-20 08:59N 51°24' E 002°37'0 0.1
2018-Feb-20 08:26N 51°24' E 002°37'0 0.0
2018-Feb-20 07:59N 51°24' E 002°37'0 0.1
2018-Feb-20 07:29N 51°24' E 002°37'0 0.0
2018-Feb-20 06:59N 51°24' E 002°37'0 0.1
2018-Feb-20 06:29N 51°24' E 002°37'0 0.1
2018-Feb-20 05:59N 51°24' E 002°37'0 0.1
2018-Feb-20 05:29N 51°24' E 002°37'0 0.0
2018-Feb-20 04:59N 51°24' E 002°37'0 0.0
2018-Feb-20 04:29N 51°24' E 002°37'0 0.0
2018-Feb-20 03:59N 51°24' E 002°37'0 0.0
2018-Feb-20 03:29N 51°24' E 002°37'0 0.0
2018-Feb-20 02:56N 51°24' E 002°37'0 0.0
2018-Feb-20 02:29N 51°24' E 002°37'0 0.2
2018-Feb-20 01:59N 51°24' E 002°37'0 0.3
2018-Feb-20 01:29N 51°24' E 002°37'0 0.0
2018-Feb-20 00:59N 51°24' E 002°37'0 0.0
2018-Feb-20 00:29N 51°24' E 002°37'0 0.0
2018-Feb-19 23:59N 51°24' E 002°37'0 0.0
2018-Feb-19 23:26N 51°24' E 002°37'0 0.0
2018-Feb-19 22:59N 51°24' E 002°37'0 0.0
2018-Feb-19 22:29N 51°24' E 002°37'0 0.0
2018-Feb-19 21:59N 51°24' E 002°37'0 0.1
2018-Feb-19 21:23N 51°24' E 002°37'0 0.1
2018-Feb-19 20:59N 51°24' E 002°37'0 0.1
2018-Feb-19 20:29N 51°24' E 002°37'0 0.1
2018-Feb-19 19:59N 51°24' E 002°37'0 0.0
2018-Feb-19 19:29N 51°24' E 002°37'0 0.0
2018-Feb-19 18:56N 51°24' E 002°37'0 0.0
2018-Feb-19 18:29N 51°24' E 002°37'0 0.0
2018-Feb-19 17:56N 51°24' E 002°37'0 0.0
2018-Feb-19 17:26N 51°24' E 002°37'0 0.0
2018-Feb-19 16:59N 51°24' E 002°37'0 0.0
2018-Feb-19 16:29N 51°24' E 002°37'0 0.0
2018-Feb-19 15:59N 51°24' E 002°37'0 0.0
2018-Feb-19 15:29N 51°24' E 002°37'0 0.0
2018-Feb-19 14:56N 51°24' E 002°37'0 0.0
2018-Feb-19 14:29N 51°24' E 002°37'0 0.0
2018-Feb-19 13:59N 51°24' E 002°37'0 0.0
2018-Feb-19 13:29N 51°24' E 002°37'0 0.0
2018-Feb-19 12:59N 51°24' E 002°37'0 0.3
2018-Feb-19 12:29N 51°24' E 002°37'0 0.1
2018-Feb-19 11:59N 51°24' E 002°37'0 0.0
2018-Feb-19 11:26N 51°24' E 002°37'0 0.0
2018-Feb-19 10:59N 51°24' E 002°37'0 0.0
2018-Feb-19 10:29N 51°24' E 002°37'0 0.0
2018-Feb-19 09:59N 51°24' E 002°37'0 0.1
2018-Feb-19 09:29N 51°24' E 002°37'0 0.1
2018-Feb-19 08:59N 51°24' E 002°37'0 0.1
2018-Feb-19 08:23N 51°24' E 002°37'0 0.1
2018-Feb-19 07:59N 51°24' E 002°37'0 0.0
2018-Feb-19 07:29N 51°24' E 002°37'0 0.0
2018-Feb-19 06:59N 51°24' E 002°37'0 0.0
2018-Feb-19 06:29N 51°24' E 002°37'0 0.0
2018-Feb-19 05:56N 51°24' E 002°37'0 0.0
2018-Feb-19 05:29N 51°24' E 002°37'0 0.0
2018-Feb-19 04:59N 51°24' E 002°37'0 0.0
2018-Feb-19 04:29N 51°24' E 002°37'0 0.0
2018-Feb-19 03:59N 51°24' E 002°37'0 0.0
2018-Feb-19 03:29N 51°24' E 002°37'0 0.0
2018-Feb-19 02:59N 51°24' E 002°37'0 0.0
2018-Feb-19 02:29N 51°24' E 002°37'0 0.0
2018-Feb-19 01:59N 51°24' E 002°37'0 0.0
2018-Feb-19 01:29N 51°24' E 002°37'0 0.0
2018-Feb-19 00:59N 51°24' E 002°37'0 0.2
2018-Feb-19 00:23N 51°24' E 002°37'0 0.2
2018-Feb-18 23:59N 51°24' E 002°37'0 0.0
2018-Feb-18 23:29N 51°24' E 002°37'0 0.0
2018-Feb-18 22:59N 51°24' E 002°37'0 0.0
2018-Feb-18 22:29N 51°24' E 002°37'0 0.0
2018-Feb-18 21:59N 51°24' E 002°37'0 0.0
2018-Feb-18 21:29N 51°24' E 002°37'0 0.1
2018-Feb-18 20:59N 51°24' E 002°37'0 0.1
2018-Feb-18 20:29N 51°24' E 002°37'0 0.1
2018-Feb-18 19:50N 51°24' E 002°37'0 0.1
2018-Feb-18 19:29N 51°24' E 002°37'0 0.0
2018-Feb-18 18:59N 51°24' E 002°37'0 0.0
2018-Feb-18 18:29N 51°24' E 002°37'0 0.0
2018-Feb-18 17:56N 51°24' E 002°37'0 0.0
2018-Feb-18 17:29N 51°24' E 002°37'0 0.1
2018-Feb-18 16:56N 51°24' E 002°37'0 0.1
2018-Feb-18 16:29N 51°24' E 002°37'0 0.0
2018-Feb-18 15:59N 51°24' E 002°37'0 0.0
2018-Feb-18 15:29N 51°24' E 002°37'0 0.0
2018-Feb-18 14:59N 51°24' E 002°37'0 0.0
2018-Feb-18 14:23N 51°24' E 002°37'0 0.0
2018-Feb-18 13:59N 51°24' E 002°37'0 0.0
2018-Feb-18 13:29N 51°24' E 002°37'0 0.0
2018-Feb-18 12:59N 51°24' E 002°37'0 0.3
2018-Feb-18 12:29N 51°24' E 002°37'0 0.2
2018-Feb-18 11:59N 51°24' E 002°37'0 0.1
2018-Feb-18 11:29N 51°24' E 002°37'0 0.0
2018-Feb-18 10:53N 51°24' E 002°37'0 0.0
2018-Feb-18 10:29N 51°24' E 002°37'0 0.0
2018-Feb-18 09:59N 51°24' E 002°37'0 0.0
2018-Feb-18 09:26N 51°24' E 002°37'0 0.0
2018-Feb-18 08:59N 51°24' E 002°37'0 0.0
2018-Feb-18 08:26N 51°24' E 002°37'0 0.1
2018-Feb-18 07:59N 51°24' E 002°37'0 0.1
2018-Feb-18 07:29N 51°24' E 002°37'0 0.1
2018-Feb-18 06:59N 51°24' E 002°37'0 0.1
2018-Feb-18 06:29N 51°24' E 002°37'0 0.1
2018-Feb-18 05:59N 51°24' E 002°37'0 0.0
2018-Feb-18 05:29N 51°24' E 002°37'0 0.0
2018-Feb-18 04:59N 51°24' E 002°37'0 0.0
2018-Feb-18 04:29N 51°24' E 002°37'0 0.0
2018-Feb-18 03:56N 51°24' E 002°37'0 0.0
2018-Feb-18 03:29N 51°24' E 002°37'0 0.0
2018-Feb-18 02:59N 51°24' E 002°37'0 0.0
2018-Feb-18 02:29N 51°24' E 002°37'0 0.0
2018-Feb-18 01:59N 51°24' E 002°37'0 0.0
2018-Feb-18 01:29N 51°24' E 002°37'0 0.0
2018-Feb-18 00:59N 51°24' E 002°37'0 0.1
2018-Feb-18 00:29N 51°24' E 002°37'0 0.3
2018-Feb-17 23:59N 51°24' E 002°37'0 0.0
2018-Feb-17 23:26N 51°24' E 002°37'0 0.0
2018-Feb-17 22:59N 51°24' E 002°37'0 0.0
2018-Feb-17 22:29N 51°24' E 002°37'0 0.0
2018-Feb-17 21:59N 51°24' E 002°37'0 0.0
2018-Feb-17 21:29N 51°24' E 002°37'0 0.0
2018-Feb-17 20:59N 51°24' E 002°37'0 0.0
2018-Feb-17 20:29N 51°24' E 002°37'0 0.0
2018-Feb-17 19:50N 51°24' E 002°37'0 0.1
2018-Feb-17 19:23N 51°24' E 002°37'0 0.0
2018-Feb-17 18:56N 51°24' E 002°37'0 0.0
2018-Feb-17 18:26N 51°24' E 002°37'0 0.1
2018-Feb-17 17:59N 51°24' E 002°37'0 0.1
2018-Feb-17 17:29N 51°24' E 002°37'0 0.1
2018-Feb-17 16:59N 51°24' E 002°37'0 0.0
2018-Feb-17 16:29N 51°24' E 002°37'0 0.0
2018-Feb-17 15:59N 51°24' E 002°37'0 0.0
2018-Feb-17 15:29N 51°24' E 002°37'0 0.0
2018-Feb-17 14:59N 51°24' E 002°37'0 0.0
2018-Feb-17 14:29N 51°24' E 002°37'0 0.0
2018-Feb-17 13:59N 51°24' E 002°37'0 0.0
2018-Feb-17 13:26N 51°24' E 002°37'0 0.0
2018-Feb-17 12:59N 51°24' E 002°37'0 0.0
2018-Feb-17 12:29N 51°24' E 002°37'0 0.3
2018-Feb-17 11:59N 51°24' E 002°37'0 0.1
2018-Feb-17 11:23N 51°24' E 002°37'0 0.0
2018-Feb-17 10:56N 51°24' E 002°37'0 0.0
2018-Feb-17 10:26N 51°24' E 002°37'0 0.0
2018-Feb-17 09:59N 51°24' E 002°37'0 0.0
2018-Feb-17 09:29N 51°24' E 002°37'0 0.0
2018-Feb-17 08:59N 51°24' E 002°37'0 0.0
2018-Feb-17 08:29N 51°24' E 002°37'0 0.0
2018-Feb-17 07:56N 51°24' E 002°37'0 0.1
2018-Feb-17 07:29N 51°24' E 002°37'0 0.0
2018-Feb-17 06:59N 51°24' E 002°37'0 0.0
2018-Feb-17 06:29N 51°24' E 002°37'0 0.0
2018-Feb-17 05:59N 51°24' E 002°37'0 0.0
2018-Feb-17 05:29N 51°24' E 002°37'0 0.1
2018-Feb-17 04:50N 51°24' E 002°37'0 0.1
2018-Feb-17 04:26N 51°24' E 002°37'0 0.1
2018-Feb-17 03:59N 51°24' E 002°37'0 0.1
2018-Feb-17 03:29N 51°24' E 002°37'0 0.0
2018-Feb-17 02:59N 51°24' E 002°37'0 0.0
2018-Feb-17 02:26N 51°24' E 002°37'0 0.0
2018-Feb-17 01:56N 51°24' E 002°37'0 0.0
2018-Feb-17 01:29N 51°24' E 002°37'0 0.0
2018-Feb-17 00:59N 51°24' E 002°37'0 0.0
2018-Feb-17 00:29N 51°24' E 002°37'0 0.2
2018-Feb-16 23:56N 51°24' E 002°37'0 0.3
2018-Feb-16 23:26N 51°24' E 002°37'0 0.1
2018-Feb-16 22:50N 51°24' E 002°37'0 0.0
2018-Feb-16 22:17N 51°24' E 002°37'0 0.0
2018-Feb-16 21:59N 51°24' E 002°37'0 0.0
2018-Feb-16 21:29N 51°24' E 002°37'0 0.0
2018-Feb-16 20:56N 51°24' E 002°37'0 0.0
2018-Feb-16 20:29N 51°24' E 002°37'0 0.0
2018-Feb-16 19:56N 51°24' E 002°37'0 0.0
2018-Feb-16 19:23N 51°24' E 002°37'0 0.0
2018-Feb-16 18:53N 51°24' E 002°37'0 0.0
2018-Feb-16 18:23N 51°24' E 002°37'0 0.0
2018-Feb-16 17:56N 51°24' E 002°37'0 0.2
2018-Feb-16 17:23N 51°24' E 002°37'0 0.1
2018-Feb-16 16:59N 51°24' E 002°37'0 0.1
2018-Feb-16 16:29N 51°24' E 002°37'0 0.0
2018-Feb-16 15:59N 51°24' E 002°37'0 0.0
2018-Feb-16 15:29N 51°24' E 002°37'0 0.0
2018-Feb-16 14:59N 51°24' E 002°37'0 0.0
2018-Feb-16 14:29N 51°24' E 002°37'0 0.0
2018-Feb-16 13:59N 51°24' E 002°37'0 0.0
2018-Feb-16 13:29N 51°24' E 002°37'0 0.0
2018-Feb-16 12:59N 51°24' E 002°37'0 0.0
2018-Feb-16 12:29N 51°24' E 002°37'0 0.1
2018-Feb-16 11:59N 51°24' E 002°37'0 0.1
2018-Feb-16 11:29N 51°24' E 002°37'0 0.3
2018-Feb-16 10:59N 51°24' E 002°37'0 0.1
2018-Feb-16 10:29N 51°24' E 002°37'0 0.0
2018-Feb-16 09:59N 51°24' E 002°37'0 0.0
2018-Feb-16 09:26N 51°24' E 002°37'0 0.0
2018-Feb-16 08:53N 51°24' E 002°37'0 0.0
2018-Feb-16 08:23N 51°24' E 002°37'0 0.1
2018-Feb-16 07:56N 51°24' E 002°37'0 0.1
2018-Feb-16 07:29N 51°24' E 002°37'0 0.1
2018-Feb-16 06:59N 51°24' E 002°37'0 0.1
2018-Feb-16 06:29N 51°24' E 002°37'0 0.1
2018-Feb-16 05:59N 51°24' E 002°37'0 0.1
2018-Feb-16 05:29N 51°24' E 002°37'0 0.0
2018-Feb-16 04:53N 51°24' E 002°37'0 0.0
2018-Feb-16 04:17N 51°24' E 002°37'0 0.0
2018-Feb-16 03:56N 51°24' E 002°37'0 0.0
2018-Feb-16 03:29N 51°24' E 002°37'0 0.0
2018-Feb-16 02:59N 51°24' E 002°37'0 0.0
2018-Feb-16 02:23N 51°24' E 002°37'0 0.0
2018-Feb-16 01:59N 51°24' E 002°37'0 0.0
2018-Feb-16 01:29N 51°24' E 002°37'0 0.0
2018-Feb-16 00:59N 51°24' E 002°37'0 0.0
2018-Feb-16 00:29N 51°24' E 002°37'0 0.0
2018-Feb-15 23:59N 51°24' E 002°37'0 0.1
2018-Feb-15 23:29N 51°24' E 002°37'0 0.1
2018-Feb-15 22:59N 51°24' E 002°37'0 0.1
2018-Feb-15 22:29N 51°24' E 002°37'0 0.2
2018-Feb-15 21:55N 51°24' E 002°37'1 1.9
2018-Feb-15 21:30N 51°24' E 002°36'4 7.0
2018-Feb-15 20:56N 51°23' E 002°30'510.9
2018-Feb-15 20:30N 51°20' E 002°23'511.0
2018-Feb-15 20:00N 51°18' E 002°15'611.7
2018-Feb-15 19:30N 51°19' E 002°06'612.7
2018-Feb-15 19:01N 51°23' E 001°58'713.4
2018-Feb-15 18:30N 51°29' E 002°03'713.4
2018-Feb-15 18:00N 51°34' E 002°11'712.9
2018-Feb-15 17:29N 51°39' E 002°18'612.4
2018-Feb-15 17:00N 51°43' E 002°24'612.0
2018-Feb-15 16:29N 51°49' E 002°30'  
2018-Feb-12 13:30N 52°26' E 004°06'1 2.2
2018-Feb-12 13:01N 52°27' E 004°07'0 0.0
2018-Feb-12 12:31N 52°27' E 004°07'0 0.1
2018-Feb-12 12:00N 52°27' E 004°07'0 0.0
2018-Feb-12 11:30N 52°27' E 004°07'0 0.1
2018-Feb-12 11:00N 52°27' E 004°07'0 0.1
2018-Feb-12 10:29N 52°27' E 004°07'0 0.0
2018-Feb-12 09:58N 52°27' E 004°07'0 0.1
2018-Feb-12 09:30N 52°27' E 004°07'0 0.0
2018-Feb-12 09:00N 52°27' E 004°07'0 0.0
2018-Feb-12 08:30N 52°27' E 004°07'0 0.0
2018-Feb-12 07:57N 52°27' E 004°07'0 0.0
2018-Feb-12 07:30N 52°27' E 004°07'0 0.0
2018-Feb-12 07:00N 52°27' E 004°07'0 0.0
2018-Feb-12 06:27N 52°27' E 004°07'0 0.0
2018-Feb-12 06:00N 52°27' E 004°07'0 0.0
2018-Feb-12 05:30N 52°27' E 004°07'0 0.0
2018-Feb-12 05:00N 52°27' E 004°07'0 0.1
2018-Feb-12 04:30N 52°27' E 004°07'0 0.0
2018-Feb-12 04:00N 52°27' E 004°07'0 0.1
2018-Feb-12 03:29N 52°27' E 004°07'0 0.0
2018-Feb-12 03:00N 52°27' E 004°07'0 0.0
2018-Feb-12 02:30N 52°27' E 004°07'0 0.0
2018-Feb-12 02:00N 52°27' E 004°07'0 0.0
2018-Feb-12 01:30N 52°27' E 004°07'0 0.0
2018-Feb-12 01:01N 52°27' E 004°07'0 0.0
2018-Feb-12 00:30N 52°27' E 004°07'0 0.0
2018-Feb-12 00:00N 52°27' E 004°07'0 0.0
2018-Feb-11 23:29N 52°27' E 004°07'0 0.1
2018-Feb-11 23:01N 52°27' E 004°07'0 0.1
2018-Feb-11 22:29N 52°27' E 004°07'0 0.1
2018-Feb-11 22:00N 52°27' E 004°07'0 0.0
2018-Feb-11 21:29N 52°27' E 004°07'0 0.0
2018-Feb-11 20:59N 52°27' E 004°07'0 0.0
2018-Feb-11 20:30N 52°27' E 004°07'0 0.0
2018-Feb-11 20:00N 52°27' E 004°07'0 0.0
2018-Feb-11 19:30N 52°27' E 004°07'0 0.1
2018-Feb-11 18:57N 52°27' E 004°07'0 0.0
2018-Feb-11 18:30N 52°27' E 004°07'0 0.1
2018-Feb-11 17:57N 52°27' E 004°07'0 0.1
2018-Feb-11 17:27N 52°27' E 004°07'0 0.0
2018-Feb-11 17:00N 52°27' E 004°07'0 0.0
2018-Feb-11 16:30N 52°27' E 004°07'0 0.0
2018-Feb-11 15:57N 52°27' E 004°07'0 0.0
2018-Feb-11 15:29N 52°27' E 004°07'0 0.0
2018-Feb-11 14:58N 52°27' E 004°07'0 0.1
2018-Feb-11 14:30N 52°27' E 004°07'0 0.0
2018-Feb-11 14:00N 52°27' E 004°07'1 2.6
2018-Feb-11 13:31N 52°28' E 004°05'510.5
2018-Feb-11 13:00N 52°27' E 003°57'611.9
2018-Feb-11 12:30N 52°26' E 003°47'612.1
2018-Feb-11 12:00N 52°24' E 003°38'4 0.5
2018-Feb-11 02:04N 52°23' E 003°31'1 7.2
2018-Feb-11 01:54N 52°24' E 003°32'3 6.3
2018-Feb-11 01:22N 52°27' E 003°35'  

Dump ship's entire track history